KMCF/MCF METAR and TAF weather

Enter ICAO airport designator
Station Type Date Time Source
KMCF METAR 2021/03/02 15:56 UTC NOAA

KMCF 021556Z AUTO 21011KT 10SM CLR 26/25 A3006 RMK AO2 SLP182 T02550253 FZRANO $


Station Type Date Time Source
KMCF Decoded METAR 2021/03/02 15:56 UTC NOAA

Macdill Air Force Base, Fl., FL, United States (KMCF) 27-51N 082-30W 4M
Mar 02, 2021 - 10:56 AM EST / 2021.03.02 1556 UTC
Wind: from the SSW (210 degrees) at 13 MPH (11 KT):0
Visibility: 10 mile(s):0
Sky conditions: clear
Temperature: 77.9 F (25.5 C)
Dew Point: 77.5 F (25.3 C)
Relative Humidity: 98%
Pressure (altimeter): 30.06 in. Hg (1017 hPa)
ob: KMCF 021556Z AUTO 21011KT 10SM CLR 26/25 A3006 RMK AO2 SLP182 T02550253 FZRANO
cycle: 16

Station Type Date Time Source
KMCF TAF 2021/03/02 09:39 UTC NOAA

TAF KMCF 020900Z 0209/0315 21009KT 9999 BKN010 OVC020 QNH3003INS
BECMG 0215/0216 VRB06KT 9999 SCT020 SCT050 QNH3009INS
BECMG 0301/0302 19009KT 9999 BKN025 BKN050 QNH2998INS
TEMPO 0311/0315 21010G15KT 8000 VCSH SCT020 BKN040 TX29/0219Z TN19/0209Z

Example: see airport list